createdAt,value
2022-12-12T00:01:51.418Z,16.334556
2022-12-12T00:06:53.116Z,15.873164
2022-12-12T00:11:54.934Z,16.63519
2022-12-12T00:16:56.617Z,16.467742
2022-12-12T00:21:58.274Z,16.229514
2022-12-12T00:26:59.787Z,16.893296
2022-12-12T00:32:01.198Z,16.80371
2022-12-12T00:37:02.659Z,17.126774
2022-12-12T00:42:04.126Z,16.67925
2022-12-12T00:47:05.722Z,17.057216
2022-12-12T00:52:07.574Z,16.63272
2022-12-12T00:57:09.028Z,16.561846
2022-12-12T01:02:10.533Z,16.344516
2022-12-12T01:07:12.094Z,16.387518
2022-12-12T01:12:13.582Z,16.172916
2022-12-12T01:17:15.082Z,16.249896
2022-12-12T01:22:16.736Z,16.184314
2022-12-12T01:27:18.254Z,16.299154
2022-12-12T01:32:19.740Z,16.100902
2022-12-12T01:37:21.508Z,16.323782
2022-12-12T01:42:23.027Z,16.931074
2022-12-12T01:47:24.484Z,16.918712
2022-12-12T01:52:26.213Z,16.25052
2022-12-12T01:57:27.800Z,16.643752
2022-12-12T02:02:29.407Z,16.939908
2022-12-12T02:07:30.950Z,17.053254
2022-12-12T02:12:32.416Z,17.311184
2022-12-12T02:17:34.125Z,17.682624
2022-12-12T02:22:35.863Z,17.400418
2022-12-12T02:27:37.326Z,17.636976
2022-12-12T02:32:38.792Z,17.309678
2022-12-12T02:37:40.409Z,17.67645
2022-12-12T02:42:41.913Z,16.684284
2022-12-12T02:47:43.606Z,16.507662
2022-12-12T02:52:45.643Z,16.96303
2022-12-12T02:57:47.112Z,17.067638
2022-12-12T03:02:48.960Z,16.102394
2022-12-12T03:07:50.696Z,16.551696
2022-12-12T03:12:52.206Z,16.670674
2022-12-12T03:17:53.765Z,16.106194
2022-12-12T03:22:55.850Z,16.546404
2022-12-12T03:27:57.572Z,16.87917
2022-12-12T03:32:59.020Z,17.041774
2022-12-12T03:38:00.644Z,16.424142
2022-12-12T03:43:02.091Z,16.483984
2022-12-12T03:48:03.596Z,15.698388
2022-12-12T03:53:05.385Z,16.380014
2022-12-12T03:58:06.844Z,16.496522
2022-12-12T04:03:08.279Z,16.655232
2022-12-12T04:08:09.914Z,16.636248
2022-12-12T04:13:11.633Z,16.795582
2022-12-12T04:18:13.045Z,16.726296
2022-12-12T04:23:15.102Z,16.300918
2022-12-12T04:28:16.863Z,15.968938
2022-12-12T04:33:18.331Z,15.973172
2022-12-12T04:38:19.824Z,16.329522
2022-12-12T04:43:21.376Z,16.06824
2022-12-12T04:48:23.208Z,16.737762
2022-12-12T04:53:25.234Z,16.720556
2022-12-12T04:58:26.777Z,17.358488
2022-12-12T05:03:28.608Z,17.161906
2022-12-12T05:08:30.582Z,16.448676
2022-12-12T05:13:32.294Z,17.100028
2022-12-12T05:18:34.122Z,16.727354
2022-12-12T05:23:36.441Z,16.868762
2022-12-12T05:28:38.641Z,16.599706
2022-12-12T05:33:40.459Z,17.086608
2022-12-12T05:38:42.340Z,17.581626
2022-12-12T05:43:44.155Z,17.296692
2022-12-12T05:48:45.931Z,17.305268
2022-12-12T05:53:47.957Z,17.350102
2022-12-12T05:58:49.996Z,17.787042
2022-12-12T06:03:51.749Z,17.611126
2022-12-12T06:08:55.773Z,16.791606
2022-12-12T06:13:57.602Z,17.104086
2022-12-12T06:18:59.247Z,17.666734
2022-12-12T06:24:00.970Z,17.833572
2022-12-12T06:29:02.747Z,17.257856
2022-12-12T06:34:04.532Z,17.467316
2022-12-12T06:39:06.402Z,17.25848
2022-12-12T06:44:08.286Z,18.05998
2022-12-12T06:49:10.112Z,17.301034
2022-12-12T06:59:22.533Z,17.85185
2022-12-12T07:04:24.065Z,17.174268
2022-12-12T07:09:25.691Z,17.898
2022-12-12T07:14:27.454Z,17.972334
2022-12-12T07:19:29.319Z,18.118248
2022-12-12T07:24:31.233Z,18.413766
2022-12-12T07:29:33.119Z,17.661076
2022-12-12T07:34:34.838Z,18.17676
2022-12-12T07:39:36.761Z,18.319132
2022-12-12T07:44:38.703Z,18.63286
2022-12-12T07:49:40.560Z,18.636402
2022-12-12T07:54:42.305Z,18.901022
2022-12-12T07:59:44.330Z,18.46073
2022-12-12T08:04:46.102Z,18.919314
2022-12-12T08:09:47.641Z,19.210272
2022-12-12T08:14:49.480Z,18.87068
2022-12-12T08:19:51.740Z,19.68993
2022-12-12T08:24:53.611Z,18.055312
2022-12-12T08:29:55.695Z,20.160794
2022-12-12T08:34:57.457Z,20.681988
2022-12-12T08:39:59.362Z,19.06691
2022-12-12T08:45:01.232Z,19.401454
2022-12-12T08:50:03.064Z,20.113504
2022-12-12T08:55:04.865Z,19.28097
2022-12-12T09:00:06.911Z,20.412374
2022-12-12T09:05:08.919Z,19.623656
2022-12-12T09:10:10.796Z,20.354106
2022-12-12T09:15:12.973Z,19.668666
2022-12-12T09:20:15.032Z,19.451146
2022-12-12T09:25:16.872Z,19.453982
2022-12-12T09:30:18.776Z,20.03191
2022-12-12T09:35:20.497Z,20.019996
2022-12-12T09:40:22.070Z,20.51937
2022-12-12T09:45:23.631Z,21.335458
2022-12-12T09:50:25.119Z,22.162348
2022-12-12T09:55:26.609Z,21.383318
2022-12-12T10:00:28.403Z,20.317848
2022-12-12T10:05:29.859Z,20.540742
2022-12-12T10:10:31.453Z,20.85481
2022-12-12T10:15:33.136Z,20.396864
2022-12-12T10:20:34.736Z,20.810424
2022-12-12T10:25:36.302Z,20.915032
2022-12-12T10:30:38.005Z,22.090402
2022-12-12T10:35:39.544Z,22.68566
2022-12-12T10:40:41.372Z,22.796984
2022-12-12T10:45:43.447Z,22.662998
2022-12-12T10:50:45.268Z,23.09751
2022-12-12T10:55:47.240Z,22.214374
2022-12-12T11:00:49.366Z,22.793456
2022-12-12T11:05:50.923Z,23.258174
2022-12-12T11:10:52.450Z,24.838096
2022-12-12T11:15:54.166Z,23.982682
2022-12-12T11:20:55.697Z,24.391656
2022-12-12T11:25:57.243Z,23.180054
2022-12-12T11:30:59.121Z,23.338072
2022-12-12T11:36:00.557Z,22.748826
2022-12-12T11:41:02.156Z,23.95998
2022-12-12T11:46:03.877Z,24.294946
2022-12-12T11:51:05.354Z,24.38194
2022-12-12T11:56:06.894Z,23.261322
2022-12-12T12:01:08.648Z,24.219512
2022-12-12T12:06:10.139Z,24.688668
2022-12-12T12:11:11.646Z,24.629952
2022-12-12T12:16:13.272Z,24.226976
2022-12-12T12:21:14.740Z,22.250116
2022-12-12T12:26:16.422Z,23.46735
2022-12-12T12:31:18.110Z,24.856836
2022-12-12T12:36:21.472Z,24.121472
2022-12-12T12:41:23.162Z,24.265364
2022-12-12T12:46:24.711Z,24.663944
2022-12-12T12:51:26.211Z,24.049336
2022-12-12T12:56:27.773Z,23.723598
2022-12-12T13:01:29.579Z,24.445894
2022-12-12T13:06:31.086Z,26.104398
2022-12-12T13:11:32.571Z,25.932946
2022-12-12T13:16:34.173Z,25.448294
2022-12-12T13:21:35.661Z,24.705874
2022-12-12T13:26:37.223Z,23.866608
2022-12-12T13:31:38.947Z,23.9615
2022-12-12T13:36:40.483Z,24.006714
2022-12-12T13:41:42.015Z,23.55562
2022-12-12T13:46:45.588Z,23.923302
2022-12-12T13:51:47.512Z,23.601282
2022-12-12T13:56:49.246Z,23.365876
2022-12-12T14:01:51.183Z,24.287048
2022-12-12T14:06:54.953Z,24.01069
2022-12-12T14:11:56.726Z,24.268024
2022-12-12T14:16:58.556Z,23.594904
2022-12-12T14:22:00.402Z,23.03087
2022-12-12T14:27:01.904Z,24.002304
2022-12-12T14:32:04.111Z,23.601336
2022-12-12T14:37:05.900Z,23.606424
2022-12-12T14:42:07.774Z,23.227914
2022-12-12T14:47:09.725Z,23.112722
2022-12-12T14:52:11.184Z,23.657582
2022-12-12T14:57:13.009Z,23.306292
2022-12-12T15:02:15.143Z,23.144054
2022-12-12T15:07:17.058Z,22.79826
2022-12-12T15:12:18.966Z,22.944798
2022-12-12T15:17:20.687Z,22.814544
2022-12-12T15:22:22.299Z,23.0931
2022-12-12T15:27:23.743Z,21.661956
2022-12-12T15:32:25.611Z,21.677466
2022-12-12T15:37:27.233Z,21.373114
2022-12-12T15:42:28.876Z,21.475754
2022-12-12T15:47:30.379Z,21.787814
2022-12-12T15:52:31.996Z,21.571732
2022-12-12T15:57:33.562Z,21.492336
2022-12-12T16:02:35.387Z,20.905316
2022-12-12T16:07:36.871Z,20.848826
2022-12-12T16:12:38.499Z,20.922536
2022-12-12T16:17:40.341Z,20.894664
2022-12-12T16:22:42.143Z,21.32904
2022-12-12T16:27:43.987Z,21.04914
2022-12-12T16:32:46.246Z,20.692138
2022-12-12T16:37:48.027Z,21.248708
2022-12-12T16:42:50.009Z,21.311562
2022-12-12T16:47:51.787Z,21.302552
2022-12-12T16:52:53.626Z,21.29171
2022-12-12T16:57:55.554Z,20.88123
2022-12-12T17:03:02.295Z,21.161754
2022-12-12T17:08:04.065Z,20.794914
2022-12-12T17:13:05.924Z,20.691188
2022-12-12T17:18:07.704Z,21.045422
2022-12-12T17:23:42.221Z,20.851404
2022-12-12T17:28:43.756Z,20.623408
2022-12-12T17:33:50.277Z,20.919632
2022-12-12T17:38:52.959Z,20.689234
2022-12-12T17:43:55.699Z,20.640058
2022-12-12T17:48:57.791Z,20.688352
2022-12-12T17:53:59.580Z,20.409158
2022-12-12T17:59:01.270Z,21.10677
2022-12-12T18:04:03.256Z,20.680848
2022-12-12T18:09:05.185Z,20.846804
2022-12-12T18:14:06.678Z,20.417096
2022-12-12T18:19:08.604Z,20.395086
2022-12-12T18:24:10.259Z,20.181718
2022-12-12T18:29:11.965Z,20.21149
2022-12-12T18:34:13.933Z,20.56263
2022-12-12T18:39:15.758Z,20.047298
2022-12-12T18:44:17.600Z,20.456448
2022-12-12T18:49:19.611Z,20.099568
2022-12-12T18:54:21.394Z,20.437912
2022-12-12T18:59:22.914Z,20.37214
2022-12-12T19:04:24.632Z,20.533238
2022-12-12T19:09:26.273Z,20.07289
2022-12-12T19:14:40.488Z,19.977564
2022-12-12T19:19:54.637Z,19.871192
2022-12-12T19:24:56.414Z,20.221884
2022-12-12T19:29:58.143Z,19.69818
2022-12-12T19:35:00.069Z,20.109528
2022-12-12T19:40:01.762Z,20.49466
2022-12-12T19:45:03.494Z,20.683304
2022-12-12T19:50:05.458Z,20.564584
2022-12-12T19:55:06.951Z,20.100884
2022-12-12T20:00:08.751Z,20.265958
2022-12-12T20:05:10.825Z,20.138024
2022-12-12T20:10:13.079Z,20.456448
2022-12-12T20:15:15.258Z,19.993196
2022-12-12T20:20:17.236Z,20.490236
2022-12-12T20:25:19.036Z,20.233364
2022-12-12T20:30:20.574Z,19.99823
2022-12-12T20:35:22.373Z,19.705236
2022-12-12T20:40:23.937Z,18.35577
2022-12-12T20:45:25.417Z,18.573276
2022-12-12T20:50:26.902Z,19.104416
2022-12-12T20:55:28.460Z,18.740738
2022-12-12T21:00:30.003Z,18.810662
2022-12-12T21:05:31.622Z,18.945272
2022-12-12T21:10:33.264Z,18.811978
2022-12-12T21:15:34.826Z,18.862742
2022-12-12T21:20:36.467Z,18.76325
2022-12-12T21:25:37.943Z,18.78815
2022-12-12T21:30:39.413Z,17.795536
2022-12-12T21:35:41.785Z,18.418542
2022-12-12T21:40:43.275Z,18.567034
2022-12-12T21:45:44.821Z,18.432234
2022-12-12T21:50:46.247Z,18.549014
2022-12-12T21:55:47.765Z,18.284122
2022-12-12T22:00:49.336Z,18.676052
2022-12-12T22:05:51.114Z,18.829198
2022-12-12T22:10:54.318Z,18.574538
2022-12-12T22:15:56.455Z,18.174222
2022-12-12T22:20:58.001Z,17.308538
2022-12-12T22:25:59.555Z,18.63974
2022-12-12T22:31:01.103Z,18.356054
2022-12-12T22:36:02.997Z,18.019122
2022-12-12T22:41:04.455Z,18.092642
2022-12-12T22:46:06.108Z,17.917866
2022-12-12T22:51:07.922Z,18.312076
2022-12-12T22:56:09.399Z,18.123716
2022-12-12T23:01:10.887Z,17.849638
2022-12-12T23:06:13.197Z,18.059804
2022-12-12T23:11:14.605Z,17.672908
2022-12-12T23:16:16.647Z,18.450838
2022-12-12T23:21:18.737Z,17.911162
2022-12-12T23:26:20.485Z,17.763024
2022-12-12T23:31:22.593Z,17.35283
2022-12-12T23:36:24.520Z,17.150168
2022-12-12T23:41:25.943Z,17.577134
2022-12-12T23:46:27.532Z,17.337306
2022-12-12T23:51:29.069Z,17.877076
2022-12-12T23:56:30.588Z,17.571476
